Time;durP1;ratioP1;P1;durP2;ratioP2;P2;SDS_P1;SDS_P2;PMS_P1;PMS_P2;Temp;Humidity;BMP_temperature;BMP_pressure;BME280_temperature;BME280_humidity;BME280_pressure;Samples;Min_cycle;Max_cycle;Signal;HPM_P1;HPM_P2
2023/12/03 00:01:54;;;;;;;;;;;;;;;;;;5064032;28;20584;-51
2023/12/03 00:04:20;;;;;;;;;;;;;;;;;;5060815;28;19920;-50
2023/12/03 00:06:46;;;;;;;;;;;;;;;;;;5063701;28;19979;-50
2023/12/03 00:09:11;;;;;;;;;;;;;;;;;;5054516;28;20372;-50
2023/12/03 00:11:37;;;;;;;;;;;;;;;;;;5060655;28;19999;-50
2023/12/03 00:14:03;;;;;;;;;;;;;;;;;;5056072;28;20376;-51
2023/12/03 00:16:29;;;;;;;;;;;;;;;;;;5054994;28;19986;-50
2023/12/03 00:18:55;;;;;;;;;;;;;;;;;;5053923;28;20331;-51
2023/12/03 00:21:21;;;;;;;;;;;;;;;;;;5063177;28;19963;-51
2023/12/03 00:23:47;;;;;;;;;;;;;;;;;;5053478;28;19955;-51
2023/12/03 00:26:13;;;;;;;;;;;;;;;;;;5050163;28;19913;-51
2023/12/03 00:28:39;;;;;;;;;;;;;;;;;;5051058;28;20348;-51
2023/12/03 00:31:05;;;;;;;;;;;;;;;;;;5050405;28;20376;-51
2023/12/03 00:33:31;;;;;;;;;;;;;;;;;;5056276;28;19947;-51
2023/12/03 00:35:59;;;;;;;;;;;;;;;;;;5057435;28;19948;-51
2023/12/03 00:38:25;;;;;;;;;;;;;;;;;;5053709;28;19913;-51
2023/12/03 00:40:51;;;;;;;;;;;;;;;;;;5050241;28;19919;-50
2023/12/03 00:43:16;;;;;;;;;;;;;;;;;;5054828;28;19966;-51
2023/12/03 00:45:42;;;;;;;;;;;;;;;;;;5051441;28;19955;-51
2023/12/03 00:48:08;;;;;;;;;;;;;;;;;;5063650;28;19963;-51
2023/12/03 00:50:34;;;;;;;;;;;;;;;;;;5049934;28;19966;-50
2023/12/03 00:53:00;;;;;;;;;;;;;;;;;;5051883;28;19963;-50
2023/12/03 00:55:26;;;;;;;;;;;;;;;;;;5065886;28;19947;-49
2023/12/03 00:57:52;;;;;;;;;;;;;;;;;;5058635;28;20388;-49
2023/12/03 01:00:18;;;;;;;;;;;;;;;;;;5051414;28;20396;-50
2023/12/03 01:02:44;;;;;;;;;;;;;;;;;;5058217;28;20416;-50
2023/12/03 01:05:10;;;;;;;;;;;;;;;;;;5059073;28;19974;-49
2023/12/03 01:07:36;;;;;;;;;;;;;;;;;;5053135;28;20427;-50
2023/12/03 01:10:02;;;;;;;;;;;;;;;;;;5054726;28;20364;-49
2023/12/03 01:12:28;;;;;;;;;;;;;;;;;;5038410;28;19959;-49
2023/12/03 01:14:54;;;;;;;;;;;;;;;;;;5050422;28;20019;-50
2023/12/03 01:17:20;;;;;;;;;;;;;;;;;;5050981;28;20040;-49
2023/12/03 01:19:46;;;;;;;;;;;;;;;;;;5049754;28;20339;-49
2023/12/03 01:22:12;;;;;;;;;;;;;;;;;;5057615;28;19952;-48
2023/12/03 01:24:38;;;;;;;;;;;;;;;;;;5061585;28;19908;-49
2023/12/03 01:27:05;;;;;;;;;;;;;;;;;;5052909;28;20042;-50
2023/12/03 01:29:31;;;;;;;;;;;;;;;;;;5057142;28;19912;-49
2023/12/03 01:31:57;;;;;;;;;;;;;;;;;;5052653;28;19916;-49
2023/12/03 01:34:23;;;;;;;;;;;;;;;;;;5062747;28;20436;-50
2023/12/03 01:36:49;;;;;;;;;;;;;;;;;;5056569;28;19950;-49
2023/12/03 01:39:15;;;;;;;;;;;;;;;;;;5057922;28;19944;-50
2023/12/03 01:41:41;;;;;;;;;;;;;;;;;;5058329;28;19959;-49
2023/12/03 01:44:07;;;;;;;;;;;;;;;;;;5052683;28;19997;-50
2023/12/03 01:46:33;;;;;;;;;;;;;;;;;;5052318;28;19962;-50
2023/12/03 01:48:59;;;;;;;;;;;;;;;;;;5054196;28;19936;-49
2023/12/03 01:51:25;;;;;;;;;;;;;;;;;;5061853;28;19959;-49
2023/12/03 01:53:51;;;;;;;;;;;;;;;;;;5051437;28;19962;-50
2023/12/03 01:56:17;;;;;;;;;;;;;;;;;;5059264;28;20355;-49
2023/12/03 01:58:43;;;;;;;;;;;;;;;;;;5056811;28;19992;-49
2023/12/03 02:01:09;;;;;;;;;;;;;;;;;;5053719;28;19955;-49
2023/12/03 02:03:35;;;;;;;;;;;;;;;;;;5052002;28;19952;-49
2023/12/03 02:06:00;;;;;;;;;;;;;;;;;;5055636;28;19943;-49
2023/12/03 02:08:26;;;;;;;;;;;;;;;;;;5056763;28;19977;-49
2023/12/03 02:10:52;;;;;;;;;;;;;;;;;;5043257;28;20015;-49
2023/12/03 02:13:18;;;;;;;;;;;;;;;;;;5065789;28;20389;-50
2023/12/03 02:15:44;;;;;;;;;;;;;;;;;;5052311;28;19959;-49
2023/12/03 02:18:10;;;;;;;;;;;;;;;;;;5054381;28;19955;-49
2023/12/03 02:20:36;;;;;;;;;;;;;;;;;;5060125;28;19963;-49
2023/12/03 02:23:02;;;;;;;;;;;;;;;;;;5056424;28;19968;-49
2023/12/03 02:25:28;;;;;;;;;;;;;;;;;;5063471;28;19951;-50
2023/12/03 02:27:54;;;;;;;;;;;;;;;;;;5062366;28;20131;-49
2023/12/03 02:30:20;;;;;;;;;;;;;;;;;;5067339;28;19963;-49
2023/12/03 02:32:46;;;;;;;;;;;;;;;;;;5056502;28;19960;-50
2023/12/03 02:35:12;;;;;;;;;;;;;;;;;;5061504;28;20379;-49
2023/12/03 02:37:38;;;;;;;;;;;;;;;;;;5063548;28;19917;-49
2023/12/03 02:40:04;;;;;;;;;;;;;;;;;;5057590;28;19950;-50
2023/12/03 02:42:30;;;;;;;;;;;;;;;;;;5056321;28;19917;-49
2023/12/03 02:44:56;;;;;;;;;;;;;;;;;;5056361;28;20269;-50
2023/12/03 02:47:21;;;;;;;;;;;;;;;;;;5061096;28;19958;-50
2023/12/03 02:49:47;;;;;;;;;;;;;;;;;;5060633;28;19975;-50
2023/12/03 02:52:13;;;;;;;;;;;;;;;;;;5060845;28;20321;-50
2023/12/03 02:54:39;;;;;;;;;;;;;;;;;;5059436;28;20498;-50
2023/12/03 02:57:05;;;;;;;;;;;;;;;;;;5055231;28;19956;-50
2023/12/03 02:59:31;;;;;;;;;;;;;;;;;;5068944;28;19959;-50
2023/12/03 03:01:57;;;;;;;;;;;;;;;;;;5063841;28;20390;-49
2023/12/03 03:04:23;;;;;;;;;;;;;;;;;;5060567;28;19999;-50
2023/12/03 03:06:49;;;;;;;;;;;;;;;;;;5060848;28;19946;-50
2023/12/03 03:09:15;;;;;;;;;;;;;;;;;;5059961;28;19952;-50
2023/12/03 03:11:41;;;;;;;;;;;;;;;;;;5057446;28;19954;-49
2023/12/03 03:14:07;;;;;;;;;;;;;;;;;;5058586;28;19986;-50
2023/12/03 03:16:34;;;;;;;;;;;;;;;;;;5063990;28;20016;-50
2023/12/03 03:19:00;;;;;;;;;;;;;;;;;;5062452;28;19913;-50
2023/12/03 03:21:26;;;;;;;;;;;;;;;;;;5052700;28;20383;-50
2023/12/03 03:23:52;;;;;;;;;;;;;;;;;;5058686;28;19964;-51
2023/12/03 03:26:18;;;;;;;;;;;;;;;;;;5054569;28;19912;-51
2023/12/03 03:28:44;;;;;;;;;;;;;;;;;;5051705;28;20410;-50
2023/12/03 03:31:10;;;;;;;;;;;;;;;;;;5071170;28;20394;-51
2023/12/03 03:33:36;;;;;;;;;;;;;;;;;;5063577;28;19917;-51
2023/12/03 03:36:02;;;;;;;;;;;;;;;;;;5064209;28;19982;-50
2023/12/03 03:38:28;;;;;;;;;;;;;;;;;;5062440;28;20455;-50
2023/12/03 03:40:54;;;;;;;;;;;;;;;;;;5055991;28;19939;-50
2023/12/03 03:43:19;;;;;;;;;;;;;;;;;;5059690;28;19962;-50
2023/12/03 03:45:45;;;;;;;;;;;;;;;;;;5063939;28;19962;-51
2023/12/03 03:48:11;;;;;;;;;;;;;;;;;;5063964;28;19952;-50
2023/12/03 03:50:37;;;;;;;;;;;;;;;;;;5052171;28;19943;-50
2023/12/03 03:53:03;;;;;;;;;;;;;;;;;;5061898;28;19940;-50
2023/12/03 03:55:29;;;;;;;;;;;;;;;;;;5057512;28;20004;-50
2023/12/03 03:57:55;;;;;;;;;;;;;;;;;;5055768;28;19956;-50
2023/12/03 04:00:22;;;;;;;;;;;;;;;;;;5066883;28;20054;-50
2023/12/03 04:02:48;;;;;;;;;;;;;;;;;;5065378;28;20039;-51
2023/12/03 04:05:14;;;;;;;;;;;;;;;;;;5065175;28;20066;-50
2023/12/03 04:07:40;;;;;;;;;;;;;;;;;;5052864;28;19995;-50
2023/12/03 04:10:06;;;;;;;;;;;;;;;;;;5060613;28;20368;-51
2023/12/03 04:12:32;;;;;;;;;;;;;;;;;;5054204;28;19944;-51
2023/12/03 04:14:58;;;;;;;;;;;;;;;;;;5067899;28;19940;-51
2023/12/03 04:17:24;;;;;;;;;;;;;;;;;;5058591;28;19947;-50
2023/12/03 04:19:50;;;;;;;;;;;;;;;;;;5054288;28;19940;-50
2023/12/03 04:22:16;;;;;;;;;;;;;;;;;;5049680;28;19963;-50
2023/12/03 04:24:42;;;;;;;;;;;;;;;;;;5052037;28;19951;-47
2023/12/03 04:27:07;;;;;;;;;;;;;;;;;;5056293;28;19943;-47
2023/12/03 04:29:33;;;;;;;;;;;;;;;;;;5058685;28;19912;-47
2023/12/03 04:31:59;;;;;;;;;;;;;;;;;;5058454;28;20271;-48
2023/12/03 04:34:25;;;;;;;;;;;;;;;;;;5064823;28;20380;-48
2023/12/03 04:36:51;;;;;;;;;;;;;;;;;;5053349;28;19908;-48
2023/12/03 04:39:17;;;;;;;;;;;;;;;;;;5053270;28;19967;-48
2023/12/03 04:41:43;;;;;;;;;;;;;;;;;;5060021;28;19952;-47
2023/12/03 04:44:09;;;;;;;;;;;;;;;;;;5049900;28;19959;-48
2023/12/03 04:46:35;;;;;;;;;;;;;;;;;;5053743;28;19971;-47
2023/12/03 04:49:01;;;;;;;;;;;;;;;;;;5051905;28;19963;-48
2023/12/03 04:51:27;;;;;;;;;;;;;;;;;;5049359;28;19952;-47
2023/12/03 04:53:53;;;;;;;;;;;;;;;;;;5051273;28;20073;-47
2023/12/03 04:56:19;;;;;;;;;;;;;;;;;;5049509;28;19920;-46
2023/12/03 04:58:45;;;;;;;;;;;;;;;;;;5061012;28;20024;-48
2023/12/03 05:01:12;;;;;;;;;;;;;;;;;;5050925;28;19951;-47
2023/12/03 05:03:38;;;;;;;;;;;;;;;;;;5060844;28;20010;-48
2023/12/03 05:06:04;;;;;;;;;;;;;;;;;;5062149;28;20339;-48
2023/12/03 05:08:30;;;;;;;;;;;;;;;;;;5055665;28;19959;-48
2023/12/03 05:10:56;;;;;;;;;;;;;;;;;;5053637;28;19940;-47
2023/12/03 05:13:22;;;;;;;;;;;;;;;;;;5068373;28;19943;-48
2023/12/03 05:15:48;;;;;;;;;;;;;;;;;;5063269;28;19916;-48
2023/12/03 05:18:14;;;;;;;;;;;;;;;;;;5058412;28;19904;-47
2023/12/03 05:20:40;;;;;;;;;;;;;;;;;;5055135;28;19978;-47
2023/12/03 05:23:06;;;;;;;;;;;;;;;;;;5053078;28;19952;-47
2023/12/03 05:25:32;;;;;;;;;;;;;;;;;;5049973;28;20360;-48
2023/12/03 05:27:58;;;;;;;;;;;;;;;;;;5050011;28;19955;-47
2023/12/03 05:30:25;;;;;;;;;;;;;;;;;;5050917;28;19940;-47
2023/12/03 05:32:51;;;;;;;;;;;;;;;;;;5049968;28;19909;-49
2023/12/03 05:35:17;;;;;;;;;;;;;;;;;;5052374;28;20364;-49
2023/12/03 05:37:43;;;;;;;;;;;;;;;;;;5057914;28;19948;-49
2023/12/03 05:40:09;;;;;;;;;;;;;;;;;;5065400;28;20017;-49
2023/12/03 05:42:35;;;;;;;;;;;;;;;;;;5049300;28;20384;-49
2023/12/03 05:45:01;;;;;;;;;;;;;;;;;;5049714;28;19991;-49
2023/12/03 05:47:27;;;;;;;;;;;;;;;;;;5050781;28;19958;-49
2023/12/03 05:49:53;;;;;;;;;;;;;;;;;;5053047;28;20330;-49
2023/12/03 05:52:19;;;;;;;;;;;;;;;;;;5050603;28;19970;-49
2023/12/03 05:54:45;;;;;;;;;;;;;;;;;;5055665;28;20339;-49
2023/12/03 05:57:11;;;;;;;;;;;;;;;;;;5052806;28;19915;-49
2023/12/03 05:59:37;;;;;;;;;;;;;;;;;;5054542;28;20003;-49
2023/12/03 06:02:04;;;;;;;;;;;;;;;;;;5058565;28;19967;-49
2023/12/03 06:04:30;;;;;;;;;;;;;;;;;;5070947;28;19977;-49
2023/12/03 06:06:56;;;;;;;;;;;;;;;;;;5070096;28;20275;-49
2023/12/03 06:09:22;;;;;;;;;;;;;;;;;;5068106;28;19944;-49
2023/12/03 06:11:48;;;;;;;;;;;;;;;;;;5066477;28;19908;-49
2023/12/03 06:14:14;;;;;;;;;;;;;;;;;;5060127;28;20348;-49
2023/12/03 06:16:40;;;;;;;;;;;;;;;;;;5053004;28;20388;-49
2023/12/03 06:19:06;;;;;;;;;;;;;;;;;;5055437;28;19952;-49
2023/12/03 06:21:32;;;;;;;;;;;;;;;;;;5051864;28;19956;-49
2023/12/03 06:23:58;;;;;;;;;;;;;;;;;;5054814;28;20014;-49
2023/12/03 06:26:24;;;;;;;;;;;;;;;;;;5067984;28;19944;-49
2023/12/03 06:28:49;;;;;;;;;;;;;;;;;;5052945;28;19957;-47
2023/12/03 06:31:15;;;;;;;;;;;;;;;;;;5053285;28;19955;-47
2023/12/03 06:33:41;;;;;;;;;;;;;;;;;;5062065;28;19944;-47
2023/12/03 06:36:07;;;;;;;;;;;;;;;;;;5067450;28;19974;-48
2023/12/03 06:38:33;;;;;;;;;;;;;;;;;;5055955;28;20017;-47
2023/12/03 06:40:59;;;;;;;;;;;;;;;;;;5052323;28;19952;-46
2023/12/03 06:43:25;;;;;;;;;;;;;;;;;;5067551;28;19954;-47
2023/12/03 06:45:51;;;;;;;;;;;;;;;;;;5063357;28;19960;-47
2023/12/03 06:48:17;;;;;;;;;;;;;;;;;;5062487;28;19952;-46
2023/12/03 06:50:43;;;;;;;;;;;;;;;;;;5051919;28;19909;-47
2023/12/03 06:53:09;;;;;;;;;;;;;;;;;;5064193;28;19919;-47
2023/12/03 06:55:35;;;;;;;;;;;;;;;;;;5061305;28;19916;-46
2023/12/03 06:58:01;;;;;;;;;;;;;;;;;;5052490;28;20261;-47
2023/12/03 07:00:27;;;;;;;;;;;;;;;;;;5064241;28;19955;-48
2023/12/03 07:02:53;;;;;;;;;;;;;;;;;;5058300;28;19963;-48
2023/12/03 07:05:19;;;;;;;;;;;;;;;;;;5052610;28;20011;-48
2023/12/03 07:07:48;;;;;;;;;;;;;;;;;;5059645;28;20062;-48
2023/12/03 07:10:14;;;;;;;;;;;;;;;;;;5070689;28;19962;-48
2023/12/03 07:12:40;;;;;;;;;;;;;;;;;;5037823;28;19912;-48
2023/12/03 07:15:06;;;;;;;;;;;;;;;;;;5062888;28;20006;-49
2023/12/03 07:17:32;;;;;;;;;;;;;;;;;;5060154;28;20223;-47
2023/12/03 07:19:58;;;;;;;;;;;;;;;;;;5064632;28;20011;-47
2023/12/03 07:22:24;;;;;;;;;;;;;;;;;;5058892;28;20018;-47
2023/12/03 07:24:50;;;;;;;;;;;;;;;;;;5058786;28;19944;-47
2023/12/03 07:27:16;;;;;;;;;;;;;;;;;;5058003;28;20272;-48
2023/12/03 07:29:42;;;;;;;;;;;;;;;;;;5062672;28;20019;-47
2023/12/03 07:32:08;;;;;;;;;;;;;;;;;;5062808;28;19966;-47
2023/12/03 07:34:34;;;;;;;;;;;;;;;;;;5056028;28;19944;-49
2023/12/03 07:37:00;;;;;;;;;;;;;;;;;;5060492;28;19974;-47
2023/12/03 07:39:26;;;;;;;;;;;;;;;;;;5057934;28;19940;-47
2023/12/03 07:41:52;;;;;;;;;;;;;;;;;;5059992;28;19989;-48
2023/12/03 07:44:17;;;;;;;;;;;;;;;;;;5050108;28;19990;-48
2023/12/03 07:46:43;;;;;;;;;;;;;;;;;;5058089;28;19951;-47
2023/12/03 07:49:09;;;;;;;;;;;;;;;;;;5063347;28;19974;-48
2023/12/03 07:51:35;;;;;;;;;;;;;;;;;;5056126;28;20175;-47
2023/12/03 07:54:01;;;;;;;;;;;;;;;;;;5050824;28;20405;-47
2023/12/03 07:56:27;;;;;;;;;;;;;;;;;;5052248;28;19955;-47
2023/12/03 07:58:53;;;;;;;;;;;;;;;;;;5052428;28;19962;-47
2023/12/03 08:01:19;;;;;;;;;;;;;;;;;;5059774;28;19948;-51
2023/12/03 08:03:45;;;;;;;;;;;;;;;;;;5062018;28;19960;-51
2023/12/03 08:06:11;;;;;;;;;;;;;;;;;;5039986;28;19912;-50
2023/12/03 08:08:37;;;;;;;;;;;;;;;;;;5056218;28;20049;-51
2023/12/03 08:11:03;;;;;;;;;;;;;;;;;;5059616;28;19939;-51
2023/12/03 08:13:29;;;;;;;;;;;;;;;;;;5054800;28;20348;-53
2023/12/03 08:15:55;;;;;;;;;;;;;;;;;;5055756;28;20427;-50
2023/12/03 08:18:21;;;;;;;;;;;;;;;;;;5053272;28;19954;-51
2023/12/03 08:20:47;;;;;;;;;;;;;;;;;;5052150;28;19912;-50
2023/12/03 08:23:13;;;;;;;;;;;;;;;;;;5051198;28;20066;-51
2023/12/03 08:25:39;;;;;;;;;;;;;;;;;;5063879;28;20002;-51
2023/12/03 08:28:05;;;;;;;;;;;;;;;;;;5051660;28;19943;-50
2023/12/03 08:30:31;;;;;;;;;;;;;;;;;;5069330;28;19912;-50
2023/12/03 08:32:57;;;;;;;;;;;;;;;;;;5062154;28;19919;-51
2023/12/03 08:35:23;;;;;;;;;;;;;;;;;;5050321;28;20330;-50
2023/12/03 08:37:49;;;;;;;;;;;;;;;;;;5060942;28;19960;-50
2023/12/03 08:40:15;;;;;;;;;;;;;;;;;;5054895;28;19916;-50
2023/12/03 08:42:44;;;;;;;;;;;;;;;;;;5064231;28;19951;-49
2023/12/03 08:45:10;;;;;;;;;;;;;;;;;;5060018;28;19963;-49
2023/12/03 08:47:36;;;;;;;;;;;;;;;;;;5050250;28;20826;-51
2023/12/03 08:50:02;;;;;;;;;;;;;;;;;;5050243;28;20328;-50
2023/12/03 08:52:27;;;;;;;;;;;;;;;;;;5068652;28;19947;-51
2023/12/03 08:54:53;;;;;;;;;;;;;;;;;;5067922;28;19951;-50
2023/12/03 08:57:19;;;;;;;;;;;;;;;;;;5051820;28;20322;-51
2023/12/03 08:59:47;;;;;;;;;;;;;;;;;;5049741;28;19955;-51
2023/12/03 09:02:12;;;;;;;;;;;;;;;;;;5049978;28;19982;-51
2023/12/03 09:04:38;;;;;;;;;;;;;;;;;;5053604;28;20380;-48
2023/12/03 09:07:04;;;;;;;;;;;;;;;;;;5066061;28;19971;-47
2023/12/03 09:09:30;;;;;;;;;;;;;;;;;;5059595;28;19995;-47
2023/12/03 09:11:56;;;;;;;;;;;;;;;;;;5067569;28;20355;-50
2023/12/03 09:14:25;;;;;;;;;;;;;;;;;;5060216;28;19944;-48
2023/12/03 09:16:51;;;;;;;;;;;;;;;;;;5056415;28;19920;-48
2023/12/03 09:19:17;;;;;;;;;;;;;;;;;;5057638;28;19944;-48
2023/12/03 09:21:43;;;;;;;;;;;;;;;;;;5057254;28;19962;-47
2023/12/03 09:24:09;;;;;;;;;;;;;;;;;;5049835;28;19919;-48
2023/12/03 09:26:34;;;;;;;;;;;;;;;;;;5049601;28;20184;-48
2023/12/03 09:29:00;;;;;;;;;;;;;;;;;;5049573;28;20426;-49
2023/12/03 09:31:26;;;;;;;;;;;;;;;;;;5050050;28;19909;-47
2023/12/03 09:33:52;;;;;;;;;;;;;;;;;;5058173;28;19955;-47
2023/12/03 09:36:18;;;;;;;;;;;;;;;;;;5050412;28;19948;-48
2023/12/03 09:38:44;;;;;;;;;;;;;;;;;;5066134;28;20394;-47
2023/12/03 09:41:13;;;;;;;;;;;;;;;;;;5056793;28;19948;-47
2023/12/03 09:43:39;;;;;;;;;;;;;;;;;;5049447;28;20011;-48
2023/12/03 09:46:05;;;;;;;;;;;;;;;;;;5049481;28;20003;-48
2023/12/03 09:48:32;;;;;;;;;;;;;;;;;;5051687;28;19971;-48
2023/12/03 09:50:58;;;;;;;;;;;;;;;;;;5051446;28;20011;-47
2023/12/03 09:53:24;;;;;;;;;;;;;;;;;;5068683;28;20003;-52
2023/12/03 09:55:50;;;;;;;;;;;;;;;;;;5067240;28;19950;-51
2023/12/03 09:58:16;;;;;;;;;;;;;;;;;;5042924;28;20256;-52
2023/12/03 10:00:42;;;;;;;;;;;;;;;;;;5049543;28;20291;-52
2023/12/03 10:03:08;;;;;;;;;;;;;;;;;;5033867;28;20403;-53
2023/12/03 10:05:34;;;;;;;;;;;;;;;;;;5051952;28;20359;-51
2023/12/03 10:08:00;;;;;;;;;;;;;;;;;;5068298;28;19948;-52
2023/12/03 10:10:26;;;;;;;;;;;;;;;;;;5068427;28;19950;-52
2023/12/03 10:12:52;;;;;;;;;;;;;;;;;;5049378;28;19959;-52
2023/12/03 10:15:18;;;;;;;;;;;;;;;;;;5063102;28;19948;-51
2023/12/03 10:17:44;;;;;;;;;;;;;;;;;;5056887;28;19994;-50
2023/12/03 10:20:10;;;;;;;;;;;;;;;;;;5065975;28;20081;-51
2023/12/03 10:22:36;;;;;;;;;;;;;;;;;;5064014;28;20403;-51
2023/12/03 10:25:03;;;;;;;;;;;;;;;;;;5066215;28;19946;-51
2023/12/03 10:27:29;;;;;;;;;;;;;;;;;;5061753;28;19908;-51
2023/12/03 10:29:55;;;;;;;;;;;;;;;;;;5056479;28;19921;-51
2023/12/03 10:32:22;;;;;;;;;;;;;;;;;;5050446;28;20265;-51
2023/12/03 10:34:48;;;;;;;;;;;;;;;;;;5051713;28;20491;-51
2023/12/03 10:37:14;;;;;;;;;;;;;;;;;;5055689;28;19997;-51
2023/12/03 10:39:40;;;;;;;;;;;;;;;;;;5059340;28;20175;-51
2023/12/03 10:42:06;;;;;;;;;;;;;;;;;;5052636;28;19971;-51
2023/12/03 10:44:32;;;;;;;;;;;;;;;;;;5053263;28;19944;-51
2023/12/03 10:46:58;;;;;;;;;;;;;;;;;;5066791;28;19964;-51
2023/12/03 10:49:27;;;;;;;;;;;;;;;;;;5060168;28;20000;-50
2023/12/03 10:51:53;;;;;;;;;;;;;;;;;;5058237;28;20001;-50
2023/12/03 10:54:19;;;;;;;;;;;;;;;;;;5060347;28;19909;-50
2023/12/03 10:56:45;;;;;;;;;;;;;;;;;;5058220;28;20014;-50
2023/12/03 10:59:11;;;;;;;;;;;;;;;;;;5061584;28;19951;-50
2023/12/03 11:01:37;;;;;;;;;;;;;;;;;;5059155;28;19916;-50
2023/12/03 11:04:03;;;;;;;;;;;;;;;;;;5054913;28;19963;-49
2023/12/03 11:06:32;;;;;;;;;;;;;;;;;;5061890;28;19963;-50
2023/12/03 11:08:58;;;;;;;;;;;;;;;;;;5052743;28;20355;-50
2023/12/03 11:11:24;;;;;;;;;;;;;;;;;;5061096;28;19940;-50
2023/12/03 11:13:50;;;;;;;;;;;;;;;;;;5060539;28;20403;-50
2023/12/03 11:16:16;;;;;;;;;;;;;;;;;;5058693;28;19981;-50
2023/12/03 11:18:42;;;;;;;;;;;;;;;;;;5059467;28;19956;-50
2023/12/03 11:21:08;;;;;;;;;;;;;;;;;;5051813;28;20639;-50
2023/12/03 11:23:34;;;;;;;;;;;;;;;;;;5063962;28;19994;-50
2023/12/03 11:26:00;;;;;;;;;;;;;;;;;;5056753;28;20034;-49
2023/12/03 11:28:26;;;;;;;;;;;;;;;;;;5062372;28;19951;-50
2023/12/03 11:30:54;;;;;;;;;;;;;;;;;;5058093;28;19913;-50
2023/12/03 11:33:20;;;;;;;;;;;;;;;;;;5055416;28;19933;-50
2023/12/03 11:35:46;;;;;;;;;;;;;;;;;;5054498;28;20383;-50
2023/12/03 11:38:12;;;;;;;;;;;;;;;;;;5063143;28;19963;-51
2023/12/03 11:40:37;;;;;;;;;;;;;;;;;;5064291;28;19908;-50
2023/12/03 11:43:06;;;;;;;;;;;;;;;;;;5056815;28;20351;-50
2023/12/03 11:45:33;;;;;;;;;;;;;;;;;;5058723;28;20011;-51
2023/12/03 11:47:59;;;;;;;;;;;;;;;;;;5061997;28;19917;-50
2023/12/03 11:50:25;;;;;;;;;;;;;;;;;;5056978;28;19959;-51
2023/12/03 11:52:51;;;;;;;;;;;;;;;;;;5059656;28;19956;-50
2023/12/03 11:55:17;;;;;;;;;;;;;;;;;;5063275;28;19962;-50
2023/12/03 11:57:43;;;;;;;;;;;;;;;;;;5058026;28;19908;-51
2023/12/03 12:00:11;;;;;;;;;;;;;;;;;;5060596;28;20000;-50
2023/12/03 12:02:37;;;;;;;;;;;;;;;;;;5052644;28;19916;-50
2023/12/03 12:05:03;;;;;;;;;;;;;;;;;;5056672;28;20325;-50
2023/12/03 12:07:29;;;;;;;;;;;;;;;;;;5054387;28;19908;-50
2023/12/03 12:09:55;;;;;;;;;;;;;;;;;;5052141;28;20395;-50
2023/12/03 12:12:21;;;;;;;;;;;;;;;;;;5036580;28;19940;-50
2023/12/03 12:14:47;;;;;;;;;;;;;;;;;;5056051;28;20356;-50
2023/12/03 12:17:13;;;;;;;;;;;;;;;;;;5051052;28;19924;-51
2023/12/03 12:19:39;;;;;;;;;;;;;;;;;;5057143;28;20310;-50
2023/12/03 12:22:05;;;;;;;;;;;;;;;;;;5037517;28;19949;-51
2023/12/03 12:24:31;;;;;;;;;;;;;;;;;;5070148;28;19912;-50
2023/12/03 12:26:57;;;;;;;;;;;;;;;;;;5053861;28;19959;-51
2023/12/03 12:29:24;;;;;;;;;;;;;;;;;;5055549;28;20023;-51
2023/12/03 12:31:50;;;;;;;;;;;;;;;;;;5062439;28;21337;-51
2023/12/03 12:34:17;;;;;;;;;;;;;;;;;;5052456;28;19962;-50
2023/12/03 12:36:44;;;;;;;;;;;;;;;;;;5062681;28;19986;-50
2023/12/03 12:39:10;;;;;;;;;;;;;;;;;;5064581;28;19920;-51
2023/12/03 12:41:36;;;;;;;;;;;;;;;;;;5058428;28;20386;-51
2023/12/03 12:44:02;;;;;;;;;;;;;;;;;;5068723;28;20275;-51
2023/12/03 12:46:29;;;;;;;;;;;;;;;;;;5059326;28;19916;-50
2023/12/03 12:48:55;;;;;;;;;;;;;;;;;;5057861;28;19986;-51
2023/12/03 12:51:21;;;;;;;;;;;;;;;;;;5064643;28;19946;-50
2023/12/03 12:53:47;;;;;;;;;;;;;;;;;;5055880;28;19928;-50
2023/12/03 12:56:13;;;;;;;;;;;;;;;;;;5048664;28;20466;-51
2023/12/03 12:58:39;;;;;;;;;;;;;;;;;;5058078;28;20015;-50
2023/12/03 13:01:05;;;;;;;;;;;;;;;;;;5053901;28;20000;-50
2023/12/03 13:03:31;;;;;;;;;;;;;;;;;;5060156;28;20321;-51
2023/12/03 13:05:57;;;;;;;;;;;;;;;;;;5054442;28;19993;-51
2023/12/03 13:08:23;;;;;;;;;;;;;;;;;;5049263;28;19944;-49
2023/12/03 13:10:49;;;;;;;;;;;;;;;;;;5058037;28;19916;-48
2023/12/03 13:13:15;;;;;;;;;;;;;;;;;;5050296;28;20302;-48
2023/12/03 13:15:41;;;;;;;;;;;;;;;;;;5049544;28;20336;-48
2023/12/03 13:18:08;;;;;;;;;;;;;;;;;;5053450;28;20007;-47
2023/12/03 13:20:34;;;;;;;;;;;;;;;;;;5051775;28;20027;-47
2023/12/03 13:22:59;;;;;;;;;;;;;;;;;;5054144;28;20311;-47
2023/12/03 13:25:29;;;;;;;;;;;;;;;;;;5049482;28;19916;-47
2023/12/03 13:27:54;;;;;;;;;;;;;;;;;;5057952;28;19915;-51
2023/12/03 13:30:20;;;;;;;;;;;;;;;;;;5053976;28;20364;-52
2023/12/03 13:32:48;;;;;;;;;;;;;;;;;;5053126;28;20407;-51
2023/12/03 13:35:14;;;;;;;;;;;;;;;;;;5052168;28;19912;-51
2023/12/03 13:37:40;;;;;;;;;;;;;;;;;;5052143;28;20015;-51
2023/12/03 13:40:09;;;;;;;;;;;;;;;;;;5052475;28;19963;-51
2023/12/03 13:42:35;;;;;;;;;;;;;;;;;;5054189;28;19977;-51
2023/12/03 13:45:03;;;;;;;;;;;;;;;;;;5049259;28;19999;-52
2023/12/03 13:47:29;;;;;;;;;;;;;;;;;;5051654;28;19944;-52
2023/12/03 13:49:55;;;;;;;;;;;;;;;;;;5056363;28;19912;-51
2023/12/03 13:52:21;;;;;;;;;;;;;;;;;;5054290;28;19908;-51
2023/12/03 13:54:49;;;;;;;;;;;;;;;;;;5052987;28;19958;-52
2023/12/03 13:57:15;;;;;;;;;;;;;;;;;;5055117;28;19916;-51
2023/12/03 13:59:41;;;;;;;;;;;;;;;;;;5050233;28;19919;-51
2023/12/03 14:02:09;;;;;;;;;;;;;;;;;;5048895;28;19959;-51
2023/12/03 14:04:35;;;;;;;;;;;;;;;;;;5061720;28;19913;-51
2023/12/03 14:07:01;;;;;;;;;;;;;;;;;;5049622;28;19915;-51
2023/12/03 14:09:27;;;;;;;;;;;;;;;;;;5060376;28;19938;-50
2023/12/03 14:11:53;;;;;;;;;;;;;;;;;;5056540;28;19963;-51
2023/12/03 14:14:19;;;;;;;;;;;;;;;;;;5048806;28;20323;-51
2023/12/03 14:16:45;;;;;;;;;;;;;;;;;;5058467;28;19943;-51
2023/12/03 14:19:11;;;;;;;;;;;;;;;;;;5058386;28;19961;-50
2023/12/03 14:21:37;;;;;;;;;;;;;;;;;;5060434;28;19951;-54
2023/12/03 14:24:03;;;;;;;;;;;;;;;;;;5068697;28;19962;-51
2023/12/03 14:26:28;;;;;;;;;;;;;;;;;;5052631;28;19998;-51
2023/12/03 14:28:54;;;;;;;;;;;;;;;;;;5057719;28;19963;-51
2023/12/03 14:31:20;;;;;;;;;;;;;;;;;;5056595;28;19982;-51
2023/12/03 14:33:46;;;;;;;;;;;;;;;;;;5059150;28;19951;-51
2023/12/03 14:36:13;;;;;;;;;;;;;;;;;;5053766;28;19940;-51
2023/12/03 14:38:39;;;;;;;;;;;;;;;;;;5053351;28;20411;-51
2023/12/03 14:41:05;;;;;;;;;;;;;;;;;;5056387;28;19979;-51
2023/12/03 14:43:32;;;;;;;;;;;;;;;;;;5053572;28;19913;-51
2023/12/03 14:45:58;;;;;;;;;;;;;;;;;;5059868;28;19909;-51
2023/12/03 14:48:24;;;;;;;;;;;;;;;;;;5066066;28;19913;-51
2023/12/03 14:50:50;;;;;;;;;;;;;;;;;;5059832;28;20017;-51
2023/12/03 14:53:16;;;;;;;;;;;;;;;;;;5044122;28;19997;-51
2023/12/03 14:55:42;;;;;;;;;;;;;;;;;;5054823;28;20378;-51
2023/12/03 14:58:08;;;;;;;;;;;;;;;;;;5054904;28;20350;-51
2023/12/03 15:00:34;;;;;;;;;;;;;;;;;;5051657;28;20395;-52
2023/12/03 15:03:00;;;;;;;;;;;;;;;;;;5054420;28;19968;-51
2023/12/03 15:05:26;;;;;;;;;;;;;;;;;;5057748;28;19947;-51
2023/12/03 15:07:52;;;;;;;;;;;;;;;;;;5071088;28;19954;-48
2023/12/03 15:10:18;;;;;;;;;;;;;;;;;;5058649;28;19936;-48
2023/12/03 15:12:44;;;;;;;;;;;;;;;;;;5059074;28;19912;-47
2023/12/03 15:15:10;;;;;;;;;;;;;;;;;;5062894;28;20402;-47
2023/12/03 15:17:36;;;;;;;;;;;;;;;;;;5064167;28;19948;-47
2023/12/03 15:20:02;;;;;;;;;;;;;;;;;;5059230;28;19959;-47
2023/12/03 15:22:28;;;;;;;;;;;;;;;;;;5060396;28;20023;-47
2023/12/03 15:24:54;;;;;;;;;;;;;;;;;;5059898;28;20400;-46
2023/12/03 15:27:20;;;;;;;;;;;;;;;;;;5055816;28;19959;-47
2023/12/03 15:29:46;;;;;;;;;;;;;;;;;;5064471;28;20333;-47
2023/12/03 15:32:12;;;;;;;;;;;;;;;;;;5068336;28;19934;-47
2023/12/03 15:34:38;;;;;;;;;;;;;;;;;;5062575;28;19951;-48
2023/12/03 15:37:04;;;;;;;;;;;;;;;;;;5062006;28;20441;-48
2023/12/03 15:39:30;;;;;;;;;;;;;;;;;;5061105;28;19958;-48
2023/12/03 15:41:59;;;;;;;;;;;;;;;;;;5064727;28;21182;-48
2023/12/03 15:44:26;;;;;;;;;;;;;;;;;;5056015;28;19912;-48
2023/12/03 15:46:52;;;;;;;;;;;;;;;;;;5061422;28;19908;-48
2023/12/03 15:49:18;;;;;;;;;;;;;;;;;;5055844;28;20402;-50
2023/12/03 15:51:44;;;;;;;;;;;;;;;;;;5051169;28;20414;-48
2023/12/03 15:54:10;;;;;;;;;;;;;;;;;;5053386;28;19927;-48
2023/12/03 15:56:36;;;;;;;;;;;;;;;;;;5056547;28;20414;-48
2023/12/03 15:59:02;;;;;;;;;;;;;;;;;;5054143;28;19952;-48
2023/12/03 16:01:28;;;;;;;;;;;;;;;;;;5052656;28;19962;-49
2023/12/03 16:03:54;;;;;;;;;;;;;;;;;;5063538;28;19968;-48
2023/12/03 16:06:20;;;;;;;;;;;;;;;;;;5054143;28;19912;-48
2023/12/03 16:08:48;;;;;;;;;;;;;;;;;;5054931;28;20021;-48
2023/12/03 16:11:14;;;;;;;;;;;;;;;;;;5067535;28;20282;-47
2023/12/03 16:13:40;;;;;;;;;;;;;;;;;;5056310;28;20288;-47
2023/12/03 16:16:07;;;;;;;;;;;;;;;;;;5059486;28;19955;-51
2023/12/03 16:18:33;;;;;;;;;;;;;;;;;;5073246;28;20401;-52
2023/12/03 16:20:59;;;;;;;;;;;;;;;;;;5052502;28;19956;-52
2023/12/03 16:23:25;;;;;;;;;;;;;;;;;;5053914;28;19979;-51
2023/12/03 16:25:51;;;;;;;;;;;;;;;;;;5059946;28;20401;-52
2023/12/03 16:28:17;;;;;;;;;;;;;;;;;;5060021;28;20023;-51
2023/12/03 16:30:43;;;;;;;;;;;;;;;;;;5059287;28;19916;-51
2023/12/03 16:33:10;;;;;;;;;;;;;;;;;;5052500;28;20372;-51
2023/12/03 16:35:36;;;;;;;;;;;;;;;;;;5061097;28;20401;-50
2023/12/03 16:38:02;;;;;;;;;;;;;;;;;;5067447;28;19909;-51